sensor_id;sensor_type;location;lat;lon;timestamp;P1;durP1;ratioP1;P2;durP2;ratioP2
12818;SDS011;6474;53.474;9.894;2023-11-22T00:00:09;0.70;;;0.70;;
12818;SDS011;6474;53.474;9.894;2023-11-22T00:02:38;0.83;;;0.83;;
12818;SDS011;6474;53.474;9.894;2023-11-22T00:05:07;9.10;;;1.03;;
12818;SDS011;6474;53.474;9.894;2023-11-22T00:07:35;0.67;;;0.67;;
12818;SDS011;6474;53.474;9.894;2023-11-22T00:10:04;1.13;;;1.13;;
12818;SDS011;6474;53.474;9.894;2023-11-22T00:12:36;0.83;;;0.83;;
12818;SDS011;6474;53.474;9.894;2023-11-22T00:15:05;0.93;;;0.83;;
12818;SDS011;6474;53.474;9.894;2023-11-22T00:17:36;0.70;;;0.70;;
12818;SDS011;6474;53.474;9.894;2023-11-22T00:20:05;0.80;;;0.80;;
12818;SDS011;6474;53.474;9.894;2023-11-22T00:22:34;0.90;;;0.90;;
12818;SDS011;6474;53.474;9.894;2023-11-22T00:25:01;0.77;;;0.77;;
12818;SDS011;6474;53.474;9.894;2023-11-22T00:27:30;0.70;;;0.70;;
12818;SDS011;6474;53.474;9.894;2023-11-22T00:30:00;0.70;;;0.70;;
12818;SDS011;6474;53.474;9.894;2023-11-22T00:32:27;1.73;;;1.30;;
12818;SDS011;6474;53.474;9.894;2023-11-22T00:34:55;0.80;;;0.80;;
12818;SDS011;6474;53.474;9.894;2023-11-22T00:37:24;2.63;;;0.63;;
12818;SDS011;6474;53.474;9.894;2023-11-22T00:39:51;0.90;;;0.90;;
12818;SDS011;6474;53.474;9.894;2023-11-22T00:42:20;0.77;;;0.77;;
12818;SDS011;6474;53.474;9.894;2023-11-22T00:44:48;0.97;;;0.97;;
12818;SDS011;6474;53.474;9.894;2023-11-22T00:47:18;0.40;;;0.40;;
12818;SDS011;6474;53.474;9.894;2023-11-22T00:49:46;0.53;;;0.53;;
12818;SDS011;6474;53.474;9.894;2023-11-22T00:52:14;1.07;;;0.87;;
12818;SDS011;6474;53.474;9.894;2023-11-22T00:54:42;1.00;;;1.00;;
12818;SDS011;6474;53.474;9.894;2023-11-22T00:57:09;0.40;;;0.40;;
12818;SDS011;6474;53.474;9.894;2023-11-22T00:59:38;0.53;;;0.53;;
12818;SDS011;6474;53.474;9.894;2023-11-22T01:02:06;0.50;;;0.50;;
12818;SDS011;6474;53.474;9.894;2023-11-22T01:04:36;0.47;;;0.47;;
12818;SDS011;6474;53.474;9.894;2023-11-22T01:07:04;0.57;;;0.57;;
12818;SDS011;6474;53.474;9.894;2023-11-22T01:09:32;0.60;;;0.60;;
12818;SDS011;6474;53.474;9.894;2023-11-22T01:12:00;1.63;;;0.67;;
12818;SDS011;6474;53.474;9.894;2023-11-22T01:14:28;0.97;;;0.83;;
12818;SDS011;6474;53.474;9.894;2023-11-22T01:16:56;0.70;;;0.70;;
12818;SDS011;6474;53.474;9.894;2023-11-22T01:19:24;0.73;;;0.73;;
12818;SDS011;6474;53.474;9.894;2023-11-22T01:21:54;0.70;;;0.70;;
12818;SDS011;6474;53.474;9.894;2023-11-22T01:24:22;0.67;;;0.67;;
12818;SDS011;6474;53.474;9.894;2023-11-22T01:26:51;0.70;;;0.70;;
12818;SDS011;6474;53.474;9.894;2023-11-22T01:29:18;0.40;;;0.40;;
12818;SDS011;6474;53.474;9.894;2023-11-22T01:31:46;0.63;;;0.63;;
12818;SDS011;6474;53.474;9.894;2023-11-22T01:34:15;0.50;;;0.50;;
12818;SDS011;6474;53.474;9.894;2023-11-22T01:36:44;0.83;;;0.80;;
12818;SDS011;6474;53.474;9.894;2023-11-22T01:39:13;0.83;;;0.70;;
12818;SDS011;6474;53.474;9.894;2023-11-22T01:41:44;0.57;;;0.57;;
12818;SDS011;6474;53.474;9.894;2023-11-22T01:44:11;0.50;;;0.50;;
12818;SDS011;6474;53.474;9.894;2023-11-22T01:46:38;1.13;;;1.00;;
12818;SDS011;6474;53.474;9.894;2023-11-22T01:49:07;1.90;;;0.43;;
12818;SDS011;6474;53.474;9.894;2023-11-22T01:51:37;0.83;;;0.83;;
12818;SDS011;6474;53.474;9.894;2023-11-22T01:54:06;0.70;;;0.70;;
12818;SDS011;6474;53.474;9.894;2023-11-22T01:56:38;0.93;;;0.93;;
12818;SDS011;6474;53.474;9.894;2023-11-22T01:59:06;0.80;;;0.80;;
12818;SDS011;6474;53.474;9.894;2023-11-22T02:01:35;0.90;;;0.90;;
12818;SDS011;6474;53.474;9.894;2023-11-22T02:04:03;0.40;;;0.40;;
12818;SDS011;6474;53.474;9.894;2023-11-22T02:06:32;0.70;;;0.50;;
12818;SDS011;6474;53.474;9.894;2023-11-22T02:09:01;1.03;;;0.60;;
12818;SDS011;6474;53.474;9.894;2023-11-22T02:11:29;0.87;;;0.60;;
12818;SDS011;6474;53.474;9.894;2023-11-22T02:13:59;0.63;;;0.63;;
12818;SDS011;6474;53.474;9.894;2023-11-22T02:16:27;0.70;;;0.70;;
12818;SDS011;6474;53.474;9.894;2023-11-22T02:18:57;3.50;;;1.03;;
12818;SDS011;6474;53.474;9.894;2023-11-22T02:21:25;0.90;;;0.90;;
12818;SDS011;6474;53.474;9.894;2023-11-22T02:23:54;0.90;;;0.90;;
12818;SDS011;6474;53.474;9.894;2023-11-22T02:26:22;1.00;;;1.00;;
12818;SDS011;6474;53.474;9.894;2023-11-22T02:28:51;0.87;;;0.87;;
12818;SDS011;6474;53.474;9.894;2023-11-22T02:31:19;1.10;;;1.10;;
12818;SDS011;6474;53.474;9.894;2023-11-22T02:33:47;2.43;;;1.20;;
12818;SDS011;6474;53.474;9.894;2023-11-22T02:36:15;2.43;;;1.70;;
12818;SDS011;6474;53.474;9.894;2023-11-22T02:38:43;0.80;;;0.80;;
12818;SDS011;6474;53.474;9.894;2023-11-22T02:41:13;0.97;;;0.83;;
12818;SDS011;6474;53.474;9.894;2023-11-22T02:43:41;0.60;;;0.60;;
12818;SDS011;6474;53.474;9.894;2023-11-22T02:46:09;1.70;;;1.00;;
12818;SDS011;6474;53.474;9.894;2023-11-22T02:48:37;1.73;;;1.33;;
12818;SDS011;6474;53.474;9.894;2023-11-22T02:51:05;1.13;;;1.13;;
12818;SDS011;6474;53.474;9.894;2023-11-22T02:53:33;1.07;;;1.07;;
12818;SDS011;6474;53.474;9.894;2023-11-22T02:56:01;0.97;;;0.93;;
12818;SDS011;6474;53.474;9.894;2023-11-22T02:58:31;0.80;;;0.80;;
12818;SDS011;6474;53.474;9.894;2023-11-22T03:00:59;0.47;;;0.47;;
12818;SDS011;6474;53.474;9.894;2023-11-22T03:03:27;0.63;;;0.63;;
12818;SDS011;6474;53.474;9.894;2023-11-22T03:05:55;1.03;;;1.03;;
12818;SDS011;6474;53.474;9.894;2023-11-22T03:08:23;0.87;;;0.87;;
12818;SDS011;6474;53.474;9.894;2023-11-22T03:13:44;5.07;;;1.10;;
12818;SDS011;6474;53.474;9.894;2023-11-22T03:16:14;1.70;;;0.93;;
12818;SDS011;6474;53.474;9.894;2023-11-22T03:18:41;1.73;;;1.63;;
12818;SDS011;6474;53.474;9.894;2023-11-22T03:21:10;1.03;;;0.93;;
12818;SDS011;6474;53.474;9.894;2023-11-22T03:23:38;1.33;;;1.23;;
12818;SDS011;6474;53.474;9.894;2023-11-22T03:26:06;0.80;;;0.80;;
12818;SDS011;6474;53.474;9.894;2023-11-22T03:28:36;1.07;;;1.07;;
12818;SDS011;6474;53.474;9.894;2023-11-22T03:31:06;1.20;;;0.47;;
12818;SDS011;6474;53.474;9.894;2023-11-22T03:33:34;0.90;;;0.90;;
12818;SDS011;6474;53.474;9.894;2023-11-22T03:36:03;0.90;;;0.90;;
12818;SDS011;6474;53.474;9.894;2023-11-22T03:38:32;0.70;;;0.70;;
12818;SDS011;6474;53.474;9.894;2023-11-22T03:41:00;3.23;;;1.37;;
12818;SDS011;6474;53.474;9.894;2023-11-22T03:43:28;0.97;;;0.70;;
12818;SDS011;6474;53.474;9.894;2023-11-22T03:45:56;0.97;;;0.97;;
12818;SDS011;6474;53.474;9.894;2023-11-22T03:48:25;0.90;;;0.90;;
12818;SDS011;6474;53.474;9.894;2023-11-22T03:50:54;0.97;;;0.70;;
12818;SDS011;6474;53.474;9.894;2023-11-22T03:53:22;0.73;;;0.73;;
12818;SDS011;6474;53.474;9.894;2023-11-22T03:55:50;0.60;;;0.60;;
12818;SDS011;6474;53.474;9.894;2023-11-22T03:58:19;0.77;;;0.77;;
12818;SDS011;6474;53.474;9.894;2023-11-22T04:00:47;1.00;;;0.97;;
12818;SDS011;6474;53.474;9.894;2023-11-22T04:03:15;0.67;;;0.67;;
12818;SDS011;6474;53.474;9.894;2023-11-22T04:05:46;0.60;;;0.53;;
12818;SDS011;6474;53.474;9.894;2023-11-22T04:08:14;0.80;;;0.80;;
12818;SDS011;6474;53.474;9.894;2023-11-22T04:10:42;0.87;;;0.87;;
12818;SDS011;6474;53.474;9.894;2023-11-22T04:13:09;1.10;;;1.10;;
12818;SDS011;6474;53.474;9.894;2023-11-22T04:15:38;0.80;;;0.80;;
12818;SDS011;6474;53.474;9.894;2023-11-22T04:18:07;0.60;;;0.60;;
12818;SDS011;6474;53.474;9.894;2023-11-22T04:20:35;1.40;;;1.00;;
12818;SDS011;6474;53.474;9.894;2023-11-22T04:23:05;0.80;;;0.80;;
12818;SDS011;6474;53.474;9.894;2023-11-22T04:25:33;0.90;;;0.90;;
12818;SDS011;6474;53.474;9.894;2023-11-22T04:28:01;1.10;;;0.67;;
12818;SDS011;6474;53.474;9.894;2023-11-22T04:30:29;0.97;;;0.97;;
12818;SDS011;6474;53.474;9.894;2023-11-22T04:32:57;0.93;;;0.93;;
12818;SDS011;6474;53.474;9.894;2023-11-22T04:35:26;0.90;;;0.90;;
12818;SDS011;6474;53.474;9.894;2023-11-22T04:37:54;0.80;;;0.80;;
12818;SDS011;6474;53.474;9.894;2023-11-22T04:40:23;2.30;;;1.27;;
12818;SDS011;6474;53.474;9.894;2023-11-22T04:42:51;0.40;;;0.40;;
12818;SDS011;6474;53.474;9.894;2023-11-22T04:45:19;1.23;;;1.17;;
12818;SDS011;6474;53.474;9.894;2023-11-22T04:47:47;1.10;;;1.10;;
12818;SDS011;6474;53.474;9.894;2023-11-22T04:50:15;0.93;;;0.93;;
12818;SDS011;6474;53.474;9.894;2023-11-22T04:52:43;2.53;;;1.30;;
12818;SDS011;6474;53.474;9.894;2023-11-22T04:55:12;0.43;;;0.43;;
12818;SDS011;6474;53.474;9.894;2023-11-22T04:57:41;1.00;;;1.00;;
12818;SDS011;6474;53.474;9.894;2023-11-22T05:00:09;0.70;;;0.70;;
12818;SDS011;6474;53.474;9.894;2023-11-22T05:02:38;1.00;;;1.00;;
12818;SDS011;6474;53.474;9.894;2023-11-22T05:05:07;1.07;;;1.07;;
12818;SDS011;6474;53.474;9.894;2023-11-22T05:07:36;1.40;;;1.40;;
12818;SDS011;6474;53.474;9.894;2023-11-22T05:10:05;0.97;;;0.87;;
12818;SDS011;6474;53.474;9.894;2023-11-22T05:12:34;1.47;;;1.37;;
12818;SDS011;6474;53.474;9.894;2023-11-22T05:15:04;0.83;;;0.83;;
12818;SDS011;6474;53.474;9.894;2023-11-22T05:17:32;0.90;;;0.90;;
12818;SDS011;6474;53.474;9.894;2023-11-22T05:20:01;0.83;;;0.83;;
12818;SDS011;6474;53.474;9.894;2023-11-22T05:22:29;2.60;;;1.40;;
12818;SDS011;6474;53.474;9.894;2023-11-22T05:24:57;1.70;;;1.40;;
12818;SDS011;6474;53.474;9.894;2023-11-22T05:27:24;1.23;;;1.13;;
12818;SDS011;6474;53.474;9.894;2023-11-22T05:29:52;1.30;;;1.13;;
12818;SDS011;6474;53.474;9.894;2023-11-22T05:32:22;1.77;;;0.90;;
12818;SDS011;6474;53.474;9.894;2023-11-22T05:34:50;3.67;;;1.47;;
12818;SDS011;6474;53.474;9.894;2023-11-22T05:37:18;1.77;;;1.67;;
12818;SDS011;6474;53.474;9.894;2023-11-22T05:39:47;1.90;;;1.80;;
12818;SDS011;6474;53.474;9.894;2023-11-22T05:42:15;6.87;;;2.90;;
12818;SDS011;6474;53.474;9.894;2023-11-22T05:44:44;1.47;;;1.40;;
12818;SDS011;6474;53.474;9.894;2023-11-22T05:47:12;2.37;;;2.27;;
12818;SDS011;6474;53.474;9.894;2023-11-22T05:49:41;9.90;;;1.50;;
12818;SDS011;6474;53.474;9.894;2023-11-22T05:52:09;3.10;;;2.17;;
12818;SDS011;6474;53.474;9.894;2023-11-22T05:54:37;2.53;;;2.33;;
12818;SDS011;6474;53.474;9.894;2023-11-22T05:57:05;2.70;;;1.47;;
12818;SDS011;6474;53.474;9.894;2023-11-22T05:59:32;1.53;;;1.43;;
12818;SDS011;6474;53.474;9.894;2023-11-22T06:02:00;1.97;;;1.43;;
12818;SDS011;6474;53.474;9.894;2023-11-22T06:04:28;1.53;;;1.47;;
12818;SDS011;6474;53.474;9.894;2023-11-22T06:06:58;1.40;;;1.30;;
12818;SDS011;6474;53.474;9.894;2023-11-22T06:09:26;7.30;;;1.20;;
12818;SDS011;6474;53.474;9.894;2023-11-22T06:11:57;5.93;;;2.10;;
12818;SDS011;6474;53.474;9.894;2023-11-22T06:14:25;2.37;;;1.53;;
12818;SDS011;6474;53.474;9.894;2023-11-22T06:16:53;1.47;;;1.47;;
12818;SDS011;6474;53.474;9.894;2023-11-22T06:19:21;1.47;;;1.37;;
12818;SDS011;6474;53.474;9.894;2023-11-22T06:21:49;1.53;;;1.53;;
12818;SDS011;6474;53.474;9.894;2023-11-22T06:24:20;2.20;;;2.00;;
12818;SDS011;6474;53.474;9.894;2023-11-22T06:26:49;1.40;;;1.40;;
12818;SDS011;6474;53.474;9.894;2023-11-22T06:29:17;1.37;;;1.37;;
12818;SDS011;6474;53.474;9.894;2023-11-22T06:31:46;1.23;;;1.13;;
12818;SDS011;6474;53.474;9.894;2023-11-22T06:34:14;1.13;;;1.13;;
12818;SDS011;6474;53.474;9.894;2023-11-22T06:36:43;1.13;;;1.10;;
12818;SDS011;6474;53.474;9.894;2023-11-22T06:39:10;3.60;;;1.80;;
12818;SDS011;6474;53.474;9.894;2023-11-22T06:41:41;1.70;;;1.40;;
12818;SDS011;6474;53.474;9.894;2023-11-22T06:44:09;1.83;;;1.73;;
12818;SDS011;6474;53.474;9.894;2023-11-22T06:46:37;3.90;;;1.23;;
12818;SDS011;6474;53.474;9.894;2023-11-22T06:49:05;3.27;;;1.20;;
12818;SDS011;6474;53.474;9.894;2023-11-22T06:51:33;1.17;;;1.03;;
12818;SDS011;6474;53.474;9.894;2023-11-22T06:54:01;1.97;;;1.87;;
12818;SDS011;6474;53.474;9.894;2023-11-22T06:56:29;1.47;;;1.37;;
12818;SDS011;6474;53.474;9.894;2023-11-22T06:58:59;1.27;;;1.17;;
12818;SDS011;6474;53.474;9.894;2023-11-22T07:01:26;1.40;;;1.23;;
12818;SDS011;6474;53.474;9.894;2023-11-22T07:03:54;1.90;;;1.33;;
12818;SDS011;6474;53.474;9.894;2023-11-22T07:06:22;1.17;;;1.17;;
12818;SDS011;6474;53.474;9.894;2023-11-22T07:08:50;0.93;;;0.93;;
12818;SDS011;6474;53.474;9.894;2023-11-22T07:11:21;1.17;;;1.17;;
12818;SDS011;6474;53.474;9.894;2023-11-22T07:13:50;1.10;;;1.10;;
12818;SDS011;6474;53.474;9.894;2023-11-22T07:16:20;4.03;;;1.17;;
12818;SDS011;6474;53.474;9.894;2023-11-22T07:18:48;1.97;;;1.80;;
12818;SDS011;6474;53.474;9.894;2023-11-22T07:21:16;1.37;;;1.37;;
12818;SDS011;6474;53.474;9.894;2023-11-22T07:23:45;1.53;;;1.53;;
12818;SDS011;6474;53.474;9.894;2023-11-22T07:26:17;1.67;;;1.43;;
12818;SDS011;6474;53.474;9.894;2023-11-22T07:28:45;1.27;;;1.17;;
12818;SDS011;6474;53.474;9.894;2023-11-22T07:31:13;1.20;;;1.17;;
12818;SDS011;6474;53.474;9.894;2023-11-22T07:33:43;2.73;;;1.17;;
12818;SDS011;6474;53.474;9.894;2023-11-22T07:36:11;1.37;;;1.33;;
12818;SDS011;6474;53.474;9.894;2023-11-22T07:38:40;1.03;;;1.03;;
12818;SDS011;6474;53.474;9.894;2023-11-22T07:41:09;1.20;;;1.20;;
12818;SDS011;6474;53.474;9.894;2023-11-22T07:43:37;1.30;;;1.27;;
12818;SDS011;6474;53.474;9.894;2023-11-22T07:46:06;3.20;;;2.83;;
12818;SDS011;6474;53.474;9.894;2023-11-22T07:48:39;3.40;;;1.57;;
12818;SDS011;6474;53.474;9.894;2023-11-22T07:51:10;1.83;;;1.73;;
12818;SDS011;6474;53.474;9.894;2023-11-22T07:53:38;1.40;;;1.40;;
12818;SDS011;6474;53.474;9.894;2023-11-22T07:56:07;0.83;;;0.83;;
12818;SDS011;6474;53.474;9.894;2023-11-22T07:58:35;1.17;;;1.17;;
12818;SDS011;6474;53.474;9.894;2023-11-22T08:01:03;1.97;;;1.87;;
12818;SDS011;6474;53.474;9.894;2023-11-22T08:03:32;1.60;;;1.50;;
12818;SDS011;6474;53.474;9.894;2023-11-22T08:06:02;1.97;;;1.87;;
12818;SDS011;6474;53.474;9.894;2023-11-22T08:08:32;1.70;;;1.60;;
12818;SDS011;6474;53.474;9.894;2023-11-22T08:11:05;2.23;;;1.97;;
12818;SDS011;6474;53.474;9.894;2023-11-22T08:13:41;2.20;;;2.10;;
12818;SDS011;6474;53.474;9.894;2023-11-22T08:16:11;6.00;;;2.53;;
12818;SDS011;6474;53.474;9.894;2023-11-22T08:18:40;1.57;;;1.47;;
12818;SDS011;6474;53.474;9.894;2023-11-22T08:21:10;2.13;;;1.97;;
12818;SDS011;6474;53.474;9.894;2023-11-22T08:23:39;3.17;;;2.60;;
12818;SDS011;6474;53.474;9.894;2023-11-22T08:26:07;2.60;;;2.20;;
12818;SDS011;6474;53.474;9.894;2023-11-22T08:28:36;2.47;;;2.30;;
12818;SDS011;6474;53.474;9.894;2023-11-22T08:31:04;1.87;;;1.80;;
12818;SDS011;6474;53.474;9.894;2023-11-22T08:33:35;4.70;;;1.50;;
12818;SDS011;6474;53.474;9.894;2023-11-22T08:36:04;1.90;;;1.80;;
12818;SDS011;6474;53.474;9.894;2023-11-22T08:38:33;1.70;;;1.60;;
12818;SDS011;6474;53.474;9.894;2023-11-22T08:41:02;2.30;;;1.70;;
12818;SDS011;6474;53.474;9.894;2023-11-22T08:43:31;2.07;;;1.97;;
12818;SDS011;6474;53.474;9.894;2023-11-22T08:46:00;1.50;;;1.40;;
12818;SDS011;6474;53.474;9.894;2023-11-22T08:48:40;4.83;;;1.47;;
12818;SDS011;6474;53.474;9.894;2023-11-22T08:51:09;1.50;;;1.40;;
12818;SDS011;6474;53.474;9.894;2023-11-22T08:53:38;2.67;;;1.70;;
12818;SDS011;6474;53.474;9.894;2023-11-22T08:56:07;2.37;;;2.20;;
12818;SDS011;6474;53.474;9.894;2023-11-22T08:58:36;4.97;;;1.83;;
12818;SDS011;6474;53.474;9.894;2023-11-22T09:01:04;2.67;;;2.43;;
12818;SDS011;6474;53.474;9.894;2023-11-22T09:03:33;1.87;;;1.43;;
12818;SDS011;6474;53.474;9.894;2023-11-22T09:06:02;2.50;;;1.23;;
12818;SDS011;6474;53.474;9.894;2023-11-22T09:08:30;1.37;;;1.10;;
12818;SDS011;6474;53.474;9.894;2023-11-22T09:10:57;1.17;;;1.17;;
12818;SDS011;6474;53.474;9.894;2023-11-22T09:13:27;0.83;;;0.77;;
12818;SDS011;6474;53.474;9.894;2023-11-22T09:15:56;0.90;;;0.90;;
12818;SDS011;6474;53.474;9.894;2023-11-22T09:18:24;1.13;;;1.13;;
12818;SDS011;6474;53.474;9.894;2023-11-22T09:20:53;0.93;;;0.93;;
12818;SDS011;6474;53.474;9.894;2023-11-22T09:23:21;0.60;;;0.60;;
12818;SDS011;6474;53.474;9.894;2023-11-22T09:25:50;0.70;;;0.70;;
12818;SDS011;6474;53.474;9.894;2023-11-22T09:28:18;1.10;;;1.00;;
12818;SDS011;6474;53.474;9.894;2023-11-22T09:30:49;1.40;;;1.30;;
12818;SDS011;6474;53.474;9.894;2023-11-22T09:33:17;1.10;;;1.03;;
12818;SDS011;6474;53.474;9.894;2023-11-22T09:35:46;0.97;;;0.97;;
12818;SDS011;6474;53.474;9.894;2023-11-22T09:38:15;0.80;;;0.80;;
12818;SDS011;6474;53.474;9.894;2023-11-22T09:40:43;0.67;;;0.67;;
12818;SDS011;6474;53.474;9.894;2023-11-22T09:43:13;1.00;;;1.00;;
12818;SDS011;6474;53.474;9.894;2023-11-22T09:45:45;1.00;;;1.00;;
12818;SDS011;6474;53.474;9.894;2023-11-22T09:48:21;0.93;;;0.93;;
12818;SDS011;6474;53.474;9.894;2023-11-22T09:50:54;2.67;;;1.10;;
12818;SDS011;6474;53.474;9.894;2023-11-22T09:53:25;0.90;;;0.83;;
12818;SDS011;6474;53.474;9.894;2023-11-22T09:55:59;0.70;;;0.70;;
12818;SDS011;6474;53.474;9.894;2023-11-22T09:58:29;1.00;;;1.00;;
12818;SDS011;6474;53.474;9.894;2023-11-22T10:00:58;1.00;;;1.00;;
12818;SDS011;6474;53.474;9.894;2023-11-22T10:03:28;0.90;;;0.90;;
12818;SDS011;6474;53.474;9.894;2023-11-22T10:05:57;0.53;;;0.53;;
12818;SDS011;6474;53.474;9.894;2023-11-22T10:08:26;0.37;;;0.37;;
12818;SDS011;6474;53.474;9.894;2023-11-22T10:10:55;0.83;;;0.67;;
12818;SDS011;6474;53.474;9.894;2023-11-22T10:13:23;0.40;;;0.40;;
12818;SDS011;6474;53.474;9.894;2023-11-22T10:15:51;0.70;;;0.70;;
12818;SDS011;6474;53.474;9.894;2023-11-22T10:18:20;0.63;;;0.63;;
12818;SDS011;6474;53.474;9.894;2023-11-22T10:20:52;1.13;;;0.57;;
12818;SDS011;6474;53.474;9.894;2023-11-22T10:23:20;0.63;;;0.63;;
12818;SDS011;6474;53.474;9.894;2023-11-22T10:25:51;0.70;;;0.70;;
12818;SDS011;6474;53.474;9.894;2023-11-22T10:28:21;0.93;;;0.93;;
12818;SDS011;6474;53.474;9.894;2023-11-22T10:30:50;0.77;;;0.77;;
12818;SDS011;6474;53.474;9.894;2023-11-22T10:33:18;0.70;;;0.70;;
12818;SDS011;6474;53.474;9.894;2023-11-22T10:35:50;0.70;;;0.70;;
12818;SDS011;6474;53.474;9.894;2023-11-22T10:38:21;0.63;;;0.63;;
12818;SDS011;6474;53.474;9.894;2023-11-22T10:40:49;0.67;;;0.67;;
12818;SDS011;6474;53.474;9.894;2023-11-22T10:43:18;2.50;;;1.00;;
12818;SDS011;6474;53.474;9.894;2023-11-22T10:45:49;0.80;;;0.80;;
12818;SDS011;6474;53.474;9.894;2023-11-22T10:48:20;1.00;;;1.00;;
12818;SDS011;6474;53.474;9.894;2023-11-22T10:50:48;0.73;;;0.73;;
12818;SDS011;6474;53.474;9.894;2023-11-22T10:53:20;1.03;;;0.70;;
12818;SDS011;6474;53.474;9.894;2023-11-22T10:55:52;0.80;;;0.80;;
12818;SDS011;6474;53.474;9.894;2023-11-22T10:58:24;0.63;;;0.63;;
12818;SDS011;6474;53.474;9.894;2023-11-22T11:00:55;0.80;;;0.80;;
12818;SDS011;6474;53.474;9.894;2023-11-22T11:03:23;0.87;;;0.87;;
12818;SDS011;6474;53.474;9.894;2023-11-22T11:05:57;0.70;;;0.70;;
12818;SDS011;6474;53.474;9.894;2023-11-22T11:08:28;0.57;;;0.57;;
12818;SDS011;6474;53.474;9.894;2023-11-22T11:10:56;0.53;;;0.53;;
12818;SDS011;6474;53.474;9.894;2023-11-22T11:13:26;0.70;;;0.70;;
12818;SDS011;6474;53.474;9.894;2023-11-22T11:15:55;0.47;;;0.47;;
12818;SDS011;6474;53.474;9.894;2023-11-22T11:18:24;0.43;;;0.43;;
12818;SDS011;6474;53.474;9.894;2023-11-22T11:20:55;1.07;;;0.70;;
12818;SDS011;6474;53.474;9.894;2023-11-22T11:23:25;0.53;;;0.53;;
12818;SDS011;6474;53.474;9.894;2023-11-22T11:25:58;0.40;;;0.40;;
12818;SDS011;6474;53.474;9.894;2023-11-22T11:28:41;0.40;;;0.40;;
12818;SDS011;6474;53.474;9.894;2023-11-22T11:31:10;0.10;;;0.10;;
12818;SDS011;6474;53.474;9.894;2023-11-22T11:33:52;0.30;;;0.30;;
12818;SDS011;6474;53.474;9.894;2023-11-22T11:36:23;0.40;;;0.40;;
12818;SDS011;6474;53.474;9.894;2023-11-22T11:38:53;0.20;;;0.20;;
12818;SDS011;6474;53.474;9.894;2023-11-22T11:41:25;0.30;;;0.30;;
12818;SDS011;6474;53.474;9.894;2023-11-22T11:43:55;0.47;;;0.47;;
12818;SDS011;6474;53.474;9.894;2023-11-22T11:46:23;0.20;;;0.20;;
12818;SDS011;6474;53.474;9.894;2023-11-22T11:48:54;0.40;;;0.40;;
12818;SDS011;6474;53.474;9.894;2023-11-22T11:51:23;0.33;;;0.33;;
12818;SDS011;6474;53.474;9.894;2023-11-22T11:53:56;0.30;;;0.30;;
12818;SDS011;6474;53.474;9.894;2023-11-22T11:56:26;0.50;;;0.50;;
12818;SDS011;6474;53.474;9.894;2023-11-22T11:58:57;0.40;;;0.40;;
12818;SDS011;6474;53.474;9.894;2023-11-22T12:01:27;0.53;;;0.53;;
12818;SDS011;6474;53.474;9.894;2023-11-22T12:04:00;0.60;;;0.60;;
12818;SDS011;6474;53.474;9.894;2023-11-22T12:06:29;0.20;;;0.20;;
12818;SDS011;6474;53.474;9.894;2023-11-22T12:09:00;0.43;;;0.43;;
12818;SDS011;6474;53.474;9.894;2023-11-22T12:11:31;0.20;;;0.20;;
12818;SDS011;6474;53.474;9.894;2023-11-22T12:13:59;0.77;;;0.77;;
12818;SDS011;6474;53.474;9.894;2023-11-22T12:16:29;0.60;;;0.60;;
12818;SDS011;6474;53.474;9.894;2023-11-22T12:18:59;0.33;;;0.33;;
12818;SDS011;6474;53.474;9.894;2023-11-22T12:21:30;0.50;;;0.50;;
12818;SDS011;6474;53.474;9.894;2023-11-22T12:23:59;0.40;;;0.40;;
12818;SDS011;6474;53.474;9.894;2023-11-22T12:26:29;0.70;;;0.70;;
12818;SDS011;6474;53.474;9.894;2023-11-22T12:29:01;0.30;;;0.30;;
12818;SDS011;6474;53.474;9.894;2023-11-22T12:31:32;0.47;;;0.47;;
12818;SDS011;6474;53.474;9.894;2023-11-22T12:34:02;0.30;;;0.30;;
12818;SDS011;6474;53.474;9.894;2023-11-22T12:36:30;0.37;;;0.37;;
12818;SDS011;6474;53.474;9.894;2023-11-22T12:38:59;0.70;;;0.70;;
12818;SDS011;6474;53.474;9.894;2023-11-22T12:41:30;0.40;;;0.40;;
12818;SDS011;6474;53.474;9.894;2023-11-22T12:44:04;0.33;;;0.33;;
12818;SDS011;6474;53.474;9.894;2023-11-22T12:49:24;0.33;;;0.33;;
12818;SDS011;6474;53.474;9.894;2023-11-22T12:51:53;0.47;;;0.37;;
12818;SDS011;6474;53.474;9.894;2023-11-22T12:54:23;0.40;;;0.40;;
12818;SDS011;6474;53.474;9.894;2023-11-22T12:56:51;0.27;;;0.27;;
12818;SDS011;6474;53.474;9.894;2023-11-22T12:59:27;0.10;;;0.10;;
12818;SDS011;6474;53.474;9.894;2023-11-22T13:01:57;0.20;;;0.20;;
12818;SDS011;6474;53.474;9.894;2023-11-22T13:04:27;0.30;;;0.30;;
12818;SDS011;6474;53.474;9.894;2023-11-22T13:06:57;0.20;;;0.20;;
12818;SDS011;6474;53.474;9.894;2023-11-22T13:09:26;0.20;;;0.20;;
12818;SDS011;6474;53.474;9.894;2023-11-22T13:11:55;0.30;;;0.30;;
12818;SDS011;6474;53.474;9.894;2023-11-22T13:14:24;0.20;;;0.20;;
12818;SDS011;6474;53.474;9.894;2023-11-22T13:16:57;0.50;;;0.50;;
12818;SDS011;6474;53.474;9.894;2023-11-22T13:19:25;0.30;;;0.30;;
12818;SDS011;6474;53.474;9.894;2023-11-22T13:21:53;0.43;;;0.43;;
12818;SDS011;6474;53.474;9.894;2023-11-22T13:24:23;0.40;;;0.40;;
12818;SDS011;6474;53.474;9.894;2023-11-22T13:26:51;0.20;;;0.20;;
12818;SDS011;6474;53.474;9.894;2023-11-22T13:29:19;0.30;;;0.30;;
12818;SDS011;6474;53.474;9.894;2023-11-22T13:31:47;0.50;;;0.50;;
12818;SDS011;6474;53.474;9.894;2023-11-22T13:34:17;5.13;;;0.70;;
12818;SDS011;6474;53.474;9.894;2023-11-22T13:36:44;0.20;;;0.20;;
12818;SDS011;6474;53.474;9.894;2023-11-22T13:39:12;0.20;;;0.20;;
12818;SDS011;6474;53.474;9.894;2023-11-22T13:41:41;0.47;;;0.43;;
12818;SDS011;6474;53.474;9.894;2023-11-22T13:44:09;0.30;;;0.30;;
12818;SDS011;6474;53.474;9.894;2023-11-22T13:46:37;0.30;;;0.30;;
12818;SDS011;6474;53.474;9.894;2023-11-22T13:49:05;0.40;;;0.40;;
12818;SDS011;6474;53.474;9.894;2023-11-22T13:51:35;0.73;;;0.60;;
12818;SDS011;6474;53.474;9.894;2023-11-22T13:54:02;0.60;;;0.60;;
12818;SDS011;6474;53.474;9.894;2023-11-22T13:56:31;0.07;;;0.07;;
12818;SDS011;6474;53.474;9.894;2023-11-22T13:58:59;0.33;;;0.33;;
12818;SDS011;6474;53.474;9.894;2023-11-22T14:01:27;0.40;;;0.40;;
12818;SDS011;6474;53.474;9.894;2023-11-22T14:03:55;0.27;;;0.27;;
12818;SDS011;6474;53.474;9.894;2023-11-22T14:06:23;0.63;;;0.63;;
12818;SDS011;6474;53.474;9.894;2023-11-22T14:08:53;0.43;;;0.43;;
12818;SDS011;6474;53.474;9.894;2023-11-22T14:11:21;0.63;;;0.40;;
12818;SDS011;6474;53.474;9.894;2023-11-22T14:13:49;2.17;;;0.43;;
12818;SDS011;6474;53.474;9.894;2023-11-22T14:16:16;0.40;;;0.40;;
12818;SDS011;6474;53.474;9.894;2023-11-22T14:18:45;0.60;;;0.60;;
12818;SDS011;6474;53.474;9.894;2023-11-22T14:21:13;0.20;;;0.20;;
12818;SDS011;6474;53.474;9.894;2023-11-22T14:23:41;0.40;;;0.40;;
12818;SDS011;6474;53.474;9.894;2023-11-22T14:26:10;0.40;;;0.40;;
12818;SDS011;6474;53.474;9.894;2023-11-22T14:28:38;0.87;;;0.87;;
12818;SDS011;6474;53.474;9.894;2023-11-22T14:31:08;0.40;;;0.40;;
12818;SDS011;6474;53.474;9.894;2023-11-22T14:33:38;1.23;;;0.57;;
12818;SDS011;6474;53.474;9.894;2023-11-22T14:36:07;1.53;;;0.60;;
12818;SDS011;6474;53.474;9.894;2023-11-22T14:38:35;0.30;;;0.30;;
12818;SDS011;6474;53.474;9.894;2023-11-22T14:41:03;0.30;;;0.30;;
12818;SDS011;6474;53.474;9.894;2023-11-22T14:43:32;0.30;;;0.30;;
12818;SDS011;6474;53.474;9.894;2023-11-22T14:46:00;0.60;;;0.60;;
12818;SDS011;6474;53.474;9.894;2023-11-22T14:48:28;0.40;;;0.40;;
12818;SDS011;6474;53.474;9.894;2023-11-22T14:50:56;0.47;;;0.47;;
12818;SDS011;6474;53.474;9.894;2023-11-22T14:53:24;0.60;;;0.53;;
12818;SDS011;6474;53.474;9.894;2023-11-22T14:55:52;1.00;;;0.60;;
12818;SDS011;6474;53.474;9.894;2023-11-22T14:58:20;0.40;;;0.40;;
12818;SDS011;6474;53.474;9.894;2023-11-22T15:00:49;0.63;;;0.63;;
12818;SDS011;6474;53.474;9.894;2023-11-22T15:03:17;0.40;;;0.40;;
12818;SDS011;6474;53.474;9.894;2023-11-22T15:05:46;0.23;;;0.23;;
12818;SDS011;6474;53.474;9.894;2023-11-22T15:08:14;0.60;;;0.60;;
12818;SDS011;6474;53.474;9.894;2023-11-22T15:10:42;0.70;;;0.70;;
12818;SDS011;6474;53.474;9.894;2023-11-22T15:13:10;0.50;;;0.50;;
12818;SDS011;6474;53.474;9.894;2023-11-22T15:15:41;2.20;;;1.20;;